sensor_id;sensor_type;location;lat;lon;timestamp;temperature;humidity
69382;DHT22;56560;50.692;12.844;2022-08-18T00:01:38;18.70;71.70
69382;DHT22;56560;50.692;12.844;2022-08-18T00:04:08;18.60;72.00
69382;DHT22;56560;50.692;12.844;2022-08-18T00:06:34;18.50;72.20
69382;DHT22;56560;50.692;12.844;2022-08-18T00:09:03;18.50;72.60
69382;DHT22;56560;50.692;12.844;2022-08-18T00:11:32;18.40;72.90
69382;DHT22;56560;50.692;12.844;2022-08-18T00:13:58;18.40;73.30
69382;DHT22;56560;50.692;12.844;2022-08-18T00:16:23;18.40;73.20
69382;DHT22;56560;50.692;12.844;2022-08-18T00:18:49;18.30;73.60
69382;DHT22;56560;50.692;12.844;2022-08-18T00:21:16;18.20;73.50
69382;DHT22;56560;50.692;12.844;2022-08-18T00:23:42;18.20;73.70
69382;DHT22;56560;50.692;12.844;2022-08-18T00:26:07;18.20;73.50
69382;DHT22;56560;50.692;12.844;2022-08-18T00:28:33;18.10;73.70
69382;DHT22;56560;50.692;12.844;2022-08-18T00:30:59;18.10;74.20
69382;DHT22;56560;50.692;12.844;2022-08-18T00:33:25;18.10;74.60
69382;DHT22;56560;50.692;12.844;2022-08-18T00:35:51;18.10;74.50
69382;DHT22;56560;50.692;12.844;2022-08-18T00:38:17;18.10;74.80
69382;DHT22;56560;50.692;12.844;2022-08-18T00:40:46;18.00;74.90
69382;DHT22;56560;50.692;12.844;2022-08-18T00:43:16;18.00;74.70
69382;DHT22;56560;50.692;12.844;2022-08-18T00:45:45;18.00;74.70
69382;DHT22;56560;50.692;12.844;2022-08-18T00:48:12;17.90;74.70
69382;DHT22;56560;50.692;12.844;2022-08-18T00:50:51;17.90;75.20
69382;DHT22;56560;50.692;12.844;2022-08-18T00:55:53;17.90;75.20
69382;DHT22;56560;50.692;12.844;2022-08-18T00:58:28;17.80;75.20
69382;DHT22;56560;50.692;12.844;2022-08-18T01:00:55;17.80;75.30
69382;DHT22;56560;50.692;12.844;2022-08-18T01:03:22;17.80;75.10
69382;DHT22;56560;50.692;12.844;2022-08-18T01:05:57;17.70;75.00
69382;DHT22;56560;50.692;12.844;2022-08-18T01:08:24;17.80;75.20
69382;DHT22;56560;50.692;12.844;2022-08-18T01:10:50;17.80;75.40
69382;DHT22;56560;50.692;12.844;2022-08-18T01:13:17;17.80;75.50
69382;DHT22;56560;50.692;12.844;2022-08-18T01:15:43;17.80;75.00
69382;DHT22;56560;50.692;12.844;2022-08-18T01:18:10;17.70;74.80
69382;DHT22;56560;50.692;12.844;2022-08-18T01:21:11;17.70;75.00
69382;DHT22;56560;50.692;12.844;2022-08-18T01:23:57;17.70;75.60
69382;DHT22;56560;50.692;12.844;2022-08-18T01:26:24;17.60;76.10
69382;DHT22;56560;50.692;12.844;2022-08-18T01:28:51;17.60;75.90
69382;DHT22;56560;50.692;12.844;2022-08-18T01:31:36;17.60;75.80
69382;DHT22;56560;50.692;12.844;2022-08-18T01:34:04;17.50;75.90
69382;DHT22;56560;50.692;12.844;2022-08-18T01:36:32;17.50;76.00
69382;DHT22;56560;50.692;12.844;2022-08-18T01:39:03;17.50;76.10
69382;DHT22;56560;50.692;12.844;2022-08-18T01:41:30;17.40;76.50
69382;DHT22;56560;50.692;12.844;2022-08-18T01:43:57;17.50;76.30
69382;DHT22;56560;50.692;12.844;2022-08-18T01:46:23;17.50;76.30
69382;DHT22;56560;50.692;12.844;2022-08-18T01:48:49;17.50;76.20
69382;DHT22;56560;50.692;12.844;2022-08-18T01:51:15;17.60;75.60
69382;DHT22;56560;50.692;12.844;2022-08-18T01:53:42;17.50;75.80
69382;DHT22;56560;50.692;12.844;2022-08-18T01:56:08;17.50;75.80
69382;DHT22;56560;50.692;12.844;2022-08-18T01:58:35;17.50;76.00
69382;DHT22;56560;50.692;12.844;2022-08-18T02:01:02;17.50;75.60
69382;DHT22;56560;50.692;12.844;2022-08-18T02:03:32;17.50;75.80
69382;DHT22;56560;50.692;12.844;2022-08-18T02:06:00;17.50;75.80
69382;DHT22;56560;50.692;12.844;2022-08-18T02:08:27;17.50;75.40
69382;DHT22;56560;50.692;12.844;2022-08-18T02:10:54;17.40;75.80
69382;DHT22;56560;50.692;12.844;2022-08-18T02:13:20;17.40;75.90
69382;DHT22;56560;50.692;12.844;2022-08-18T02:15:46;17.40;75.60
69382;DHT22;56560;50.692;12.844;2022-08-18T02:18:16;17.40;76.40
69382;DHT22;56560;50.692;12.844;2022-08-18T02:20:42;17.30;76.40
69382;DHT22;56560;50.692;12.844;2022-08-18T02:23:08;17.30;76.60
69382;DHT22;56560;50.692;12.844;2022-08-18T02:25:34;17.30;76.50
69382;DHT22;56560;50.692;12.844;2022-08-18T02:28:00;17.30;76.70
69382;DHT22;56560;50.692;12.844;2022-08-18T02:30:25;17.30;77.10
69382;DHT22;56560;50.692;12.844;2022-08-18T02:32:51;17.20;77.00
69382;DHT22;56560;50.692;12.844;2022-08-18T02:35:17;17.20;77.70
69382;DHT22;56560;50.692;12.844;2022-08-18T02:37:43;17.10;77.60
69382;DHT22;56560;50.692;12.844;2022-08-18T02:40:14;17.20;77.80
69382;DHT22;56560;50.692;12.844;2022-08-18T02:42:40;17.20;77.50
69382;DHT22;56560;50.692;12.844;2022-08-18T02:45:06;17.30;76.90
69382;DHT22;56560;50.692;12.844;2022-08-18T02:47:33;17.30;77.00
69382;DHT22;56560;50.692;12.844;2022-08-18T02:49:58;17.40;76.60
69382;DHT22;56560;50.692;12.844;2022-08-18T02:52:24;17.40;76.60
69382;DHT22;56560;50.692;12.844;2022-08-18T02:54:59;17.40;76.20
69382;DHT22;56560;50.692;12.844;2022-08-18T02:57:29;17.50;75.70
69382;DHT22;56560;50.692;12.844;2022-08-18T02:59:55;17.50;75.90
69382;DHT22;56560;50.692;12.844;2022-08-18T03:02:21;17.50;75.70
69382;DHT22;56560;50.692;12.844;2022-08-18T03:04:47;17.60;75.50
69382;DHT22;56560;50.692;12.844;2022-08-18T03:07:13;17.60;75.10
69382;DHT22;56560;50.692;12.844;2022-08-18T03:09:40;17.60;74.50
69382;DHT22;56560;50.692;12.844;2022-08-18T03:12:07;17.80;74.90
69382;DHT22;56560;50.692;12.844;2022-08-18T03:14:33;17.70;74.80
69382;DHT22;56560;50.692;12.844;2022-08-18T03:17:02;17.70;75.50
69382;DHT22;56560;50.692;12.844;2022-08-18T03:19:29;17.70;75.50
69382;DHT22;56560;50.692;12.844;2022-08-18T03:21:55;17.60;75.70
69382;DHT22;56560;50.692;12.844;2022-08-18T03:24:23;17.60;76.00
69382;DHT22;56560;50.692;12.844;2022-08-18T03:26:50;17.50;76.00
69382;DHT22;56560;50.692;12.844;2022-08-18T03:29:16;17.50;76.10
69382;DHT22;56560;50.692;12.844;2022-08-18T03:31:43;17.50;76.00
69382;DHT22;56560;50.692;12.844;2022-08-18T03:34:10;17.40;76.20
69382;DHT22;56560;50.692;12.844;2022-08-18T03:36:36;17.40;76.20
69382;DHT22;56560;50.692;12.844;2022-08-18T03:39:09;17.30;76.30
69382;DHT22;56560;50.692;12.844;2022-08-18T03:41:40;17.30;76.40
69382;DHT22;56560;50.692;12.844;2022-08-18T03:44:08;17.30;76.30
69382;DHT22;56560;50.692;12.844;2022-08-18T03:46:34;17.20;76.60
69382;DHT22;56560;50.692;12.844;2022-08-18T03:48:59;17.20;76.80
69382;DHT22;56560;50.692;12.844;2022-08-18T03:51:29;17.20;77.30
69382;DHT22;56560;50.692;12.844;2022-08-18T03:53:58;17.10;77.20
69382;DHT22;56560;50.692;12.844;2022-08-18T03:56:30;17.10;76.80
69382;DHT22;56560;50.692;12.844;2022-08-18T03:59:00;17.10;77.30
69382;DHT22;56560;50.692;12.844;2022-08-18T04:01:29;17.20;76.60
69382;DHT22;56560;50.692;12.844;2022-08-18T04:04:00;17.30;76.10
69382;DHT22;56560;50.692;12.844;2022-08-18T04:06:29;17.40;76.20
69382;DHT22;56560;50.692;12.844;2022-08-18T04:08:57;17.40;76.30
69382;DHT22;56560;50.692;12.844;2022-08-18T04:11:25;17.50;76.30
69382;DHT22;56560;50.692;12.844;2022-08-18T04:13:55;17.50;76.00
69382;DHT22;56560;50.692;12.844;2022-08-18T04:16:26;17.60;75.60
69382;DHT22;56560;50.692;12.844;2022-08-18T04:18:52;17.70;75.70
69382;DHT22;56560;50.692;12.844;2022-08-18T04:21:18;17.70;75.40
69382;DHT22;56560;50.692;12.844;2022-08-18T04:23:44;17.80;75.00
69382;DHT22;56560;50.692;12.844;2022-08-18T04:26:10;17.80;74.90
69382;DHT22;56560;50.692;12.844;2022-08-18T04:28:37;17.90;74.50
69382;DHT22;56560;50.692;12.844;2022-08-18T04:31:08;18.00;74.20
69382;DHT22;56560;50.692;12.844;2022-08-18T04:33:35;18.10;74.20
69382;DHT22;56560;50.692;12.844;2022-08-18T04:36:10;18.20;73.80
69382;DHT22;56560;50.692;12.844;2022-08-18T04:38:36;18.30;73.40
69382;DHT22;56560;50.692;12.844;2022-08-18T04:41:02;18.30;73.40
69382;DHT22;56560;50.692;12.844;2022-08-18T04:43:29;18.40;73.00
69382;DHT22;56560;50.692;12.844;2022-08-18T04:45:55;18.50;72.60
69382;DHT22;56560;50.692;12.844;2022-08-18T04:48:30;18.50;72.70
69382;DHT22;56560;50.692;12.844;2022-08-18T04:51:03;18.60;72.60
69382;DHT22;56560;50.692;12.844;2022-08-18T04:53:29;18.60;72.70
69382;DHT22;56560;50.692;12.844;2022-08-18T04:56:23;18.70;72.20
69382;DHT22;56560;50.692;12.844;2022-08-18T04:58:58;18.90;71.80
69382;DHT22;56560;50.692;12.844;2022-08-18T05:01:28;19.00;71.00
69382;DHT22;56560;50.692;12.844;2022-08-18T05:03:55;19.20;70.10
69382;DHT22;56560;50.692;12.844;2022-08-18T05:06:23;19.40;69.70
69382;DHT22;56560;50.692;12.844;2022-08-18T05:08:51;19.70;69.30
69382;DHT22;56560;50.692;12.844;2022-08-18T05:11:17;20.00;68.40
69382;DHT22;56560;50.692;12.844;2022-08-18T05:13:43;20.20;67.70
69382;DHT22;56560;50.692;12.844;2022-08-18T05:16:09;20.40;66.50
69382;DHT22;56560;50.692;12.844;2022-08-18T05:18:35;20.60;66.40
69382;DHT22;56560;50.692;12.844;2022-08-18T05:21:08;20.80;66.40
69382;DHT22;56560;50.692;12.844;2022-08-18T05:23:41;21.10;65.40
69382;DHT22;56560;50.692;12.844;2022-08-18T05:26:07;21.30;63.90
69382;DHT22;56560;50.692;12.844;2022-08-18T05:28:37;21.30;63.60
69382;DHT22;56560;50.692;12.844;2022-08-18T05:31:14;21.50;63.60
69382;DHT22;56560;50.692;12.844;2022-08-18T05:33:53;21.70;62.70
69382;DHT22;56560;50.692;12.844;2022-08-18T05:39:20;21.90;61.90
69382;DHT22;56560;50.692;12.844;2022-08-18T05:42:14;22.00;62.60
69382;DHT22;56560;50.692;12.844;2022-08-18T05:44:46;22.00;62.60
69382;DHT22;56560;50.692;12.844;2022-08-18T05:47:21;22.00;61.70
69382;DHT22;56560;50.692;12.844;2022-08-18T05:49:48;22.00;61.90
69382;DHT22;56560;50.692;12.844;2022-08-18T05:53:03;22.00;62.10
69382;DHT22;56560;50.692;12.844;2022-08-18T05:55:06;22.00;62.20
69382;DHT22;56560;50.692;12.844;2022-08-18T05:58:00;22.10;62.90
69382;DHT22;56560;50.692;12.844;2022-08-18T06:00:27;22.10;63.50
69382;DHT22;56560;50.692;12.844;2022-08-18T06:03:15;22.20;63.10
69382;DHT22;56560;50.692;12.844;2022-08-18T06:05:51;22.30;62.50
69382;DHT22;56560;50.692;12.844;2022-08-18T06:08:20;22.40;62.20
69382;DHT22;56560;50.692;12.844;2022-08-18T06:10:49;22.60;62.10
69382;DHT22;56560;50.692;12.844;2022-08-18T06:13:15;22.80;62.20
69382;DHT22;56560;50.692;12.844;2022-08-18T06:30:02;23.50;59.10
69382;DHT22;56560;50.692;12.844;2022-08-18T06:35:32;23.80;59.30
69382;DHT22;56560;50.692;12.844;2022-08-18T06:38:14;24.00;60.40
69382;DHT22;56560;50.692;12.844;2022-08-18T06:43:54;24.20;59.70
69382;DHT22;56560;50.692;12.844;2022-08-18T06:49:38;24.30;54.90
69382;DHT22;56560;50.692;12.844;2022-08-18T06:52:29;24.30;53.10
69382;DHT22;56560;50.692;12.844;2022-08-18T06:54:58;24.40;51.70
69382;DHT22;56560;50.692;12.844;2022-08-18T07:02:54;24.70;50.80
69382;DHT22;56560;50.692;12.844;2022-08-18T07:05:29;24.70;50.80
69382;DHT22;56560;50.692;12.844;2022-08-18T07:08:08;24.70;50.60
69382;DHT22;56560;50.692;12.844;2022-08-18T07:10:44;24.70;50.80
69382;DHT22;56560;50.692;12.844;2022-08-18T07:15:42;25.00;50.70
69382;DHT22;56560;50.692;12.844;2022-08-18T07:18:10;25.20;50.90
69382;DHT22;56560;50.692;12.844;2022-08-18T07:23:07;25.30;49.90
69382;DHT22;56560;50.692;12.844;2022-08-18T07:25:40;25.30;49.20
69382;DHT22;56560;50.692;12.844;2022-08-18T07:28:06;25.40;48.80
69382;DHT22;56560;50.692;12.844;2022-08-18T07:30:51;25.50;50.30
69382;DHT22;56560;50.692;12.844;2022-08-18T07:33:21;25.40;49.90
69382;DHT22;56560;50.692;12.844;2022-08-18T07:35:53;25.40;49.70
69382;DHT22;56560;50.692;12.844;2022-08-18T07:38:47;25.40;50.40
69382;DHT22;56560;50.692;12.844;2022-08-18T07:41:41;25.50;48.80
69382;DHT22;56560;50.692;12.844;2022-08-18T07:44:19;25.80;48.90
69382;DHT22;56560;50.692;12.844;2022-08-18T07:47:12;26.10;49.30
69382;DHT22;56560;50.692;12.844;2022-08-18T07:49:40;26.30;48.90
69382;DHT22;56560;50.692;12.844;2022-08-18T07:52:19;26.20;48.10
69382;DHT22;56560;50.692;12.844;2022-08-18T08:00:41;25.80;48.70
69382;DHT22;56560;50.692;12.844;2022-08-18T08:05:59;25.40;49.20
69382;DHT22;56560;50.692;12.844;2022-08-18T08:12:22;25.30;49.80
69382;DHT22;56560;50.692;12.844;2022-08-18T08:17:32;25.60;49.50
69382;DHT22;56560;50.692;12.844;2022-08-18T08:22:28;25.60;48.80
69382;DHT22;56560;50.692;12.844;2022-08-18T08:30:16;25.60;48.70
69382;DHT22;56560;50.692;12.844;2022-08-18T08:35:15;25.20;49.20
69382;DHT22;56560;50.692;12.844;2022-08-18T08:40:18;25.10;49.60
69382;DHT22;56560;50.692;12.844;2022-08-18T08:43:49;25.00;49.80
69382;DHT22;56560;50.692;12.844;2022-08-18T08:48:43;25.20;50.90
69382;DHT22;56560;50.692;12.844;2022-08-18T08:51:44;25.20;50.70
69382;DHT22;56560;50.692;12.844;2022-08-18T08:57:15;25.30;50.70
69382;DHT22;56560;50.692;12.844;2022-08-18T08:59:44;25.50;50.90
69382;DHT22;56560;50.692;12.844;2022-08-18T09:18:14;26.80;48.20
69382;DHT22;56560;50.692;12.844;2022-08-18T09:25:55;27.60;46.70
69382;DHT22;56560;50.692;12.844;2022-08-18T09:28:51;27.80;46.40
69382;DHT22;56560;50.692;12.844;2022-08-18T09:31:20;28.00;44.20
69382;DHT22;56560;50.692;12.844;2022-08-18T09:34:17;27.70;45.10
69382;DHT22;56560;50.692;12.844;2022-08-18T09:39:35;27.50;45.10
69382;DHT22;56560;50.692;12.844;2022-08-18T09:42:46;27.40;45.50
69382;DHT22;56560;50.692;12.844;2022-08-18T09:47:59;27.70;46.40
69382;DHT22;56560;50.692;12.844;2022-08-18T09:52:53;27.90;45.90
69382;DHT22;56560;50.692;12.844;2022-08-18T10:00:40;27.30;45.30
69382;DHT22;56560;50.692;12.844;2022-08-18T10:03:17;27.10;45.80
69382;DHT22;56560;50.692;12.844;2022-08-18T10:05:59;26.90;46.70
69382;DHT22;56560;50.692;12.844;2022-08-18T10:08:43;26.70;46.50
69382;DHT22;56560;50.692;12.844;2022-08-18T10:11:41;26.50;47.20
69382;DHT22;56560;50.692;12.844;2022-08-18T10:14:59;26.30;48.20
69382;DHT22;56560;50.692;12.844;2022-08-18T10:19:54;26.10;48.30
69382;DHT22;56560;50.692;12.844;2022-08-18T10:22:43;25.80;48.70
69382;DHT22;56560;50.692;12.844;2022-08-18T10:25:11;25.60;50.20
69382;DHT22;56560;50.692;12.844;2022-08-18T10:33:11;24.80;53.00
69382;DHT22;56560;50.692;12.844;2022-08-18T10:38:22;24.30;55.30
69382;DHT22;56560;50.692;12.844;2022-08-18T10:41:20;24.10;56.40
69382;DHT22;56560;50.692;12.844;2022-08-18T10:43:49;24.00;58.10
69382;DHT22;56560;50.692;12.844;2022-08-18T10:46:20;23.90;57.90
69382;DHT22;56560;50.692;12.844;2022-08-18T10:51:56;23.80;59.00
69382;DHT22;56560;50.692;12.844;2022-08-18T10:57:13;23.90;55.80
69382;DHT22;56560;50.692;12.844;2022-08-18T10:59:46;23.90;55.10
69382;DHT22;56560;50.692;12.844;2022-08-18T11:02:25;23.90;55.50
69382;DHT22;56560;50.692;12.844;2022-08-18T11:04:55;23.90;55.20
69382;DHT22;56560;50.692;12.844;2022-08-18T11:07:24;23.90;55.30
69382;DHT22;56560;50.692;12.844;2022-08-18T11:09:53;24.10;56.10
69382;DHT22;56560;50.692;12.844;2022-08-18T11:18:28;24.40;55.10
69382;DHT22;56560;50.692;12.844;2022-08-18T11:26:36;24.90;53.60
69382;DHT22;56560;50.692;12.844;2022-08-18T11:29:36;25.10;53.60
69382;DHT22;56560;50.692;12.844;2022-08-18T11:37:55;25.50;53.50
69382;DHT22;56560;50.692;12.844;2022-08-18T11:40:36;26.00;52.80
69382;DHT22;56560;50.692;12.844;2022-08-18T11:53:49;26.60;51.10
69382;DHT22;56560;50.692;12.844;2022-08-18T12:07:02;26.30;51.10
69382;DHT22;56560;50.692;12.844;2022-08-18T12:12:24;25.70;52.40
69382;DHT22;56560;50.692;12.844;2022-08-18T12:17:40;25.60;52.70
69382;DHT22;56560;50.692;12.844;2022-08-18T12:20:07;25.50;53.10
69382;DHT22;56560;50.692;12.844;2022-08-18T12:22:35;25.50;53.10
69382;DHT22;56560;50.692;12.844;2022-08-18T12:25:03;25.60;52.80
69382;DHT22;56560;50.692;12.844;2022-08-18T12:27:29;25.70;52.50
69382;DHT22;56560;50.692;12.844;2022-08-18T12:29:59;25.70;52.30
69382;DHT22;56560;50.692;12.844;2022-08-18T12:32:27;25.60;52.60
69382;DHT22;56560;50.692;12.844;2022-08-18T12:34:53;25.60;52.40
69382;DHT22;56560;50.692;12.844;2022-08-18T12:37:22;25.50;53.00
69382;DHT22;56560;50.692;12.844;2022-08-18T12:39:49;25.60;52.80
69382;DHT22;56560;50.692;12.844;2022-08-18T12:42:18;25.80;53.10
69382;DHT22;56560;50.692;12.844;2022-08-18T12:44:44;26.10;52.00
69382;DHT22;56560;50.692;12.844;2022-08-18T12:47:13;26.40;51.30
69382;DHT22;56560;50.692;12.844;2022-08-18T12:49:39;26.70;51.00
69382;DHT22;56560;50.692;12.844;2022-08-18T12:52:05;26.70;51.00
69382;DHT22;56560;50.692;12.844;2022-08-18T12:54:31;27.60;50.10
69382;DHT22;56560;50.692;12.844;2022-08-18T12:56:58;28.70;48.10
69382;DHT22;56560;50.692;12.844;2022-08-18T12:59:24;29.50;46.30
69382;DHT22;56560;50.692;12.844;2022-08-18T13:01:51;29.90;44.70
69382;DHT22;56560;50.692;12.844;2022-08-18T13:04:17;29.80;44.50
69382;DHT22;56560;50.692;12.844;2022-08-18T13:06:51;29.40;45.60
69382;DHT22;56560;50.692;12.844;2022-08-18T13:09:21;29.20;45.80
69382;DHT22;56560;50.692;12.844;2022-08-18T13:11:48;29.20;46.30
69382;DHT22;56560;50.692;12.844;2022-08-18T13:14:13;29.10;46.50
69382;DHT22;56560;50.692;12.844;2022-08-18T13:16:43;28.90;46.40
69382;DHT22;56560;50.692;12.844;2022-08-18T13:19:11;28.70;47.40
69382;DHT22;56560;50.692;12.844;2022-08-18T13:21:37;28.40;47.30
69382;DHT22;56560;50.692;12.844;2022-08-18T13:24:04;28.00;48.10
69382;DHT22;56560;50.692;12.844;2022-08-18T13:26:35;27.70;49.10
69382;DHT22;56560;50.692;12.844;2022-08-18T13:29:02;27.60;49.40
69382;DHT22;56560;50.692;12.844;2022-08-18T13:31:28;27.60;49.30
69382;DHT22;56560;50.692;12.844;2022-08-18T13:33:55;27.50;49.30
69382;DHT22;56560;50.692;12.844;2022-08-18T13:36:21;27.70;49.50
69382;DHT22;56560;50.692;12.844;2022-08-18T13:38:47;28.10;49.10
69382;DHT22;56560;50.692;12.844;2022-08-18T13:41:13;28.70;47.80
69382;DHT22;56560;50.692;12.844;2022-08-18T13:43:42;29.00;46.50
69382;DHT22;56560;50.692;12.844;2022-08-18T13:46:10;29.20;46.10
69382;DHT22;56560;50.692;12.844;2022-08-18T13:48:37;29.20;46.50
69382;DHT22;56560;50.692;12.844;2022-08-18T13:51:05;29.10;46.10
69382;DHT22;56560;50.692;12.844;2022-08-18T13:53:34;29.30;46.50
69382;DHT22;56560;50.692;12.844;2022-08-18T13:56:00;29.60;45.80
69382;DHT22;56560;50.692;12.844;2022-08-18T13:58:27;30.10;44.80
69382;DHT22;56560;50.692;12.844;2022-08-18T14:00:58;30.40;44.30
69382;DHT22;56560;50.692;12.844;2022-08-18T14:03:24;31.00;44.50
69382;DHT22;56560;50.692;12.844;2022-08-18T14:05:50;31.50;42.60
69382;DHT22;56560;50.692;12.844;2022-08-18T14:08:18;31.70;41.40
69382;DHT22;56560;50.692;12.844;2022-08-18T14:10:44;31.70;42.20
69382;DHT22;56560;50.692;12.844;2022-08-18T14:13:10;31.50;41.50
69382;DHT22;56560;50.692;12.844;2022-08-18T14:15:36;31.40;42.40
69382;DHT22;56560;50.692;12.844;2022-08-18T14:18:04;32.40;41.60
69382;DHT22;56560;50.692;12.844;2022-08-18T14:20:30;33.50;39.60
69382;DHT22;56560;50.692;12.844;2022-08-18T14:23:14;34.30;38.30
69382;DHT22;56560;50.692;12.844;2022-08-18T14:25:58;34.90;37.40
69382;DHT22;56560;50.692;12.844;2022-08-18T14:28:43;35.10;37.20
69382;DHT22;56560;50.692;12.844;2022-08-18T14:31:09;35.40;36.30
69382;DHT22;56560;50.692;12.844;2022-08-18T14:33:36;35.00;36.60
69382;DHT22;56560;50.692;12.844;2022-08-18T14:36:03;34.80;36.70
69382;DHT22;56560;50.692;12.844;2022-08-18T14:38:31;34.50;37.00
69382;DHT22;56560;50.692;12.844;2022-08-18T14:41:00;34.50;37.20
69382;DHT22;56560;50.692;12.844;2022-08-18T14:43:27;34.70;37.20
69382;DHT22;56560;50.692;12.844;2022-08-18T14:45:52;34.60;37.10
69382;DHT22;56560;50.692;12.844;2022-08-18T14:48:20;34.70;37.40
69382;DHT22;56560;50.692;12.844;2022-08-18T14:50:49;35.00;37.00
69382;DHT22;56560;50.692;12.844;2022-08-18T14:53:17;35.10;36.50
69382;DHT22;56560;50.692;12.844;2022-08-18T14:55:48;35.10;36.20
69382;DHT22;56560;50.692;12.844;2022-08-18T14:58:21;35.10;36.60
69382;DHT22;56560;50.692;12.844;2022-08-18T15:00:53;35.20;36.80
69382;DHT22;56560;50.692;12.844;2022-08-18T15:03:19;35.30;36.10
69382;DHT22;56560;50.692;12.844;2022-08-18T15:05:45;35.30;36.20
69382;DHT22;56560;50.692;12.844;2022-08-18T15:08:11;35.40;35.80
69382;DHT22;56560;50.692;12.844;2022-08-18T15:10:37;35.70;35.80
69382;DHT22;56560;50.692;12.844;2022-08-18T15:13:03;36.40;35.00
69382;DHT22;56560;50.692;12.844;2022-08-18T15:15:29;36.70;33.70
69382;DHT22;56560;50.692;12.844;2022-08-18T15:17:55;36.90;33.70
69382;DHT22;56560;50.692;12.844;2022-08-18T15:20:23;37.10;33.90
69382;DHT22;56560;50.692;12.844;2022-08-18T15:22:49;37.40;32.70
69382;DHT22;56560;50.692;12.844;2022-08-18T15:25:33;37.10;33.40
69382;DHT22;56560;50.692;12.844;2022-08-18T15:28:22;37.40;33.40
69382;DHT22;56560;50.692;12.844;2022-08-18T15:30:50;37.90;32.20
69382;DHT22;56560;50.692;12.844;2022-08-18T15:33:17;38.00;32.10
69382;DHT22;56560;50.692;12.844;2022-08-18T15:35:44;37.90;32.30
69382;DHT22;56560;50.692;12.844;2022-08-18T15:38:18;37.90;32.00
69382;DHT22;56560;50.692;12.844;2022-08-18T15:40:53;37.40;32.60
69382;DHT22;56560;50.692;12.844;2022-08-18T15:43:19;37.60;32.80
69382;DHT22;56560;50.692;12.844;2022-08-18T15:45:45;37.70;32.10
69382;DHT22;56560;50.692;12.844;2022-08-18T15:48:15;37.90;32.10
69382;DHT22;56560;50.692;12.844;2022-08-18T15:50:42;38.00;31.70
69382;DHT22;56560;50.692;12.844;2022-08-18T15:53:10;37.20;32.70
69382;DHT22;56560;50.692;12.844;2022-08-18T15:55:37;37.00;32.90
69382;DHT22;56560;50.692;12.844;2022-08-18T15:58:03;37.00;33.30
69382;DHT22;56560;50.692;12.844;2022-08-18T16:00:30;37.20;33.00
69382;DHT22;56560;50.692;12.844;2022-08-18T16:03:00;37.00;33.30
69382;DHT22;56560;50.692;12.844;2022-08-18T16:05:38;36.90;33.30
69382;DHT22;56560;50.692;12.844;2022-08-18T16:08:07;36.30;33.90
69382;DHT22;56560;50.692;12.844;2022-08-18T16:10:35;35.80;34.60
69382;DHT22;56560;50.692;12.844;2022-08-18T16:13:02;35.80;35.20
69382;DHT22;56560;50.692;12.844;2022-08-18T16:15:32;36.10;34.60
69382;DHT22;56560;50.692;12.844;2022-08-18T16:17:58;36.00;34.90
69382;DHT22;56560;50.692;12.844;2022-08-18T16:20:24;36.00;35.10
69382;DHT22;56560;50.692;12.844;2022-08-18T16:22:51;35.60;35.10
69382;DHT22;56560;50.692;12.844;2022-08-18T16:25:18;34.60;36.10
69382;DHT22;56560;50.692;12.844;2022-08-18T16:27:45;33.80;37.30
69382;DHT22;56560;50.692;12.844;2022-08-18T16:30:20;33.20;38.20
69382;DHT22;56560;50.692;12.844;2022-08-18T16:32:46;32.40;39.60
69382;DHT22;56560;50.692;12.844;2022-08-18T16:35:13;31.90;40.60
69382;DHT22;56560;50.692;12.844;2022-08-18T16:37:39;31.20;41.50
69382;DHT22;56560;50.692;12.844;2022-08-18T16:40:05;30.40;42.50
69382;DHT22;56560;50.692;12.844;2022-08-18T16:42:33;29.70;43.90
69382;DHT22;56560;50.692;12.844;2022-08-18T16:45:00;28.90;45.60
69382;DHT22;56560;50.692;12.844;2022-08-18T16:47:26;28.50;46.70
69382;DHT22;56560;50.692;12.844;2022-08-18T16:49:53;28.10;47.50
69382;DHT22;56560;50.692;12.844;2022-08-18T16:52:19;27.70;48.10
69382;DHT22;56560;50.692;12.844;2022-08-18T16:54:46;27.30;49.30
69382;DHT22;56560;50.692;12.844;2022-08-18T16:57:12;26.90;50.40
69382;DHT22;56560;50.692;12.844;2022-08-18T16:59:38;26.80;50.90
69382;DHT22;56560;50.692;12.844;2022-08-18T17:02:22;26.60;51.40
69382;DHT22;56560;50.692;12.844;2022-08-18T17:05:07;26.30;52.10
69382;DHT22;56560;50.692;12.844;2022-08-18T17:07:35;26.00;52.20
69382;DHT22;56560;50.692;12.844;2022-08-18T17:10:02;25.80;53.00
69382;DHT22;56560;50.692;12.844;2022-08-18T17:12:28;25.70;53.60
69382;DHT22;56560;50.692;12.844;2022-08-18T17:14:54;25.60;53.50
69382;DHT22;56560;50.692;12.844;2022-08-18T17:17:21;25.60;54.20
69382;DHT22;56560;50.692;12.844;2022-08-18T17:19:48;25.50;54.60
69382;DHT22;56560;50.692;12.844;2022-08-18T17:22:16;25.30;55.20
69382;DHT22;56560;50.692;12.844;2022-08-18T17:24:43;25.10;55.80
69382;DHT22;56560;50.692;12.844;2022-08-18T17:27:16;25.00;56.00
69382;DHT22;56560;50.692;12.844;2022-08-18T17:35:05;25.00;56.60
69382;DHT22;56560;50.692;12.844;2022-08-18T17:37:33;24.90;56.80
69382;DHT22;56560;50.692;12.844;2022-08-18T17:40:11;24.70;57.00
69382;DHT22;56560;50.692;12.844;2022-08-18T17:42:37;24.50;57.50
69382;DHT22;56560;50.692;12.844;2022-08-18T17:45:07;24.50;57.90
69382;DHT22;56560;50.692;12.844;2022-08-18T17:48:02;24.40;57.80
69382;DHT22;56560;50.692;12.844;2022-08-18T17:53:15;24.10;59.00
69382;DHT22;56560;50.692;12.844;2022-08-18T17:58:38;24.00;60.00
69382;DHT22;56560;50.692;12.844;2022-08-18T18:01:09;24.00;59.70
69382;DHT22;56560;50.692;12.844;2022-08-18T18:03:36;23.90;59.70
69382;DHT22;56560;50.692;12.844;2022-08-18T18:09:07;23.80;60.30
69382;DHT22;56560;50.692;12.844;2022-08-18T18:11:39;23.80;60.90
69382;DHT22;56560;50.692;12.844;2022-08-18T18:14:28;23.70;60.70
69382;DHT22;56560;50.692;12.844;2022-08-18T18:17:07;23.70;61.30
69382;DHT22;56560;50.692;12.844;2022-08-18T18:19:39;23.60;61.60
69382;DHT22;56560;50.692;12.844;2022-08-18T18:22:08;23.60;61.70
69382;DHT22;56560;50.692;12.844;2022-08-18T18:27:31;23.40;62.70
69382;DHT22;56560;50.692;12.844;2022-08-18T18:30:01;23.30;62.80
69382;DHT22;56560;50.692;12.844;2022-08-18T18:32:35;23.30;63.70
69382;DHT22;56560;50.692;12.844;2022-08-18T18:37:53;23.10;65.30
69382;DHT22;56560;50.692;12.844;2022-08-18T18:40:38;23.00;65.20
69382;DHT22;56560;50.692;12.844;2022-08-18T18:43:34;23.00;65.30
69382;DHT22;56560;50.692;12.844;2022-08-18T18:49:02;22.90;66.30